Time;durP1;ratioP1;P1;durP2;ratioP2;P2;SDS_P1;SDS_P2;PMS_P1;PMS_P2;Temp;Humidity;BMP_temperature;BMP_pressure;BME280_temperature;BME280_humidity;BME280_pressure;Samples;Min_cycle;Max_cycle;Signal;HPM_P1;HPM_P2
2023/10/01 00:00:53;;;;;;;8.97;2.40;;;;;;;;;;5079235;28;20267;-47
2023/10/01 00:03:19;;;;;;;8.33;2.70;;;;;;;;;;5095657;28;20263;-47
2023/10/01 00:05:45;;;;;;;9.63;2.33;;;;;;;;;;5077761;28;20175;-49
2023/10/01 00:08:14;;;;;;;11.20;2.40;;;;;;;;;;5095401;28;20164;-49
2023/10/01 00:10:44;;;;;;;9.57;2.47;;;;;;;;;;5078299;28;20310;-50
2023/10/01 00:13:11;;;;;;;14.07;2.50;;;;;;;;;;5078259;28;20177;-47
2023/10/01 00:15:38;;;;;;;6.27;2.30;;;;;;;;;;5096015;28;20164;-48
2023/10/01 00:18:06;;;;;;;7.00;2.30;;;;;;;;;;5077745;28;20172;-51
2023/10/01 00:20:33;;;;;;;8.53;2.87;;;;;;;;;;5077304;28;20172;-52
2023/10/01 00:23:05;;;;;;;10.30;3.17;;;;;;;;;;5076502;28;20237;-47
2023/10/01 00:25:32;;;;;;;8.70;3.03;;;;;;;;;;5093827;28;20149;-51
2023/10/01 00:27:59;;;;;;;9.20;2.63;;;;;;;;;;5095227;28;20662;-47
2023/10/01 00:30:25;;;;;;;8.37;3.10;;;;;;;;;;5075977;28;20564;-48
2023/10/01 00:32:51;;;;;;;7.20;2.40;;;;;;;;;;5076697;28;20261;-50
2023/10/01 00:35:18;;;;;;;5.77;2.37;;;;;;;;;;5077647;28;20168;-49
2023/10/01 00:37:44;;;;;;;7.40;2.13;;;;;;;;;;5079100;28;20226;-50
2023/10/01 00:40:13;;;;;;;6.70;2.40;;;;;;;;;;5096980;28;20160;-51
2023/10/01 00:42:40;;;;;;;7.33;3.30;;;;;;;;;;5096705;28;20210;-50
2023/10/01 00:45:07;;;;;;;10.67;2.50;;;;;;;;;;5079184;28;20156;-51
2023/10/01 00:47:34;;;;;;;7.47;2.20;;;;;;;;;;5078333;28;20168;-50
2023/10/01 00:50:00;;;;;;;5.40;2.10;;;;;;;;;;5078616;28;20166;-51
2023/10/01 00:52:28;;;;;;;4.53;2.40;;;;;;;;;;5079612;28;20164;-51
2023/10/01 00:54:57;;;;;;;4.50;2.80;;;;;;;;;;5096423;28;20149;-49
2023/10/01 00:57:23;;;;;;;10.47;3.57;;;;;;;;;;5078252;28;20229;-49
2023/10/01 00:59:50;;;;;;;4.37;2.20;;;;;;;;;;5095514;28;20442;-47
2023/10/01 01:02:17;;;;;;;7.00;2.40;;;;;;;;;;5077461;28;20190;-48
2023/10/01 01:04:45;;;;;;;5.47;2.77;;;;;;;;;;5077742;28;20271;-47
2023/10/01 01:07:20;;;;;;;3.83;2.20;;;;;;;;;;5077178;28;20172;-47
2023/10/01 01:09:48;;;;;;;10.73;2.93;;;;;;;;;;5077991;28;20197;-52
2023/10/01 01:12:18;;;;;;;3.87;2.00;;;;;;;;;;5095766;28;20194;-51
2023/10/01 01:14:44;;;;;;;6.50;2.37;;;;;;;;;;5096070;28;20271;-50
2023/10/01 01:17:11;;;;;;;4.83;1.90;;;;;;;;;;5069358;28;20314;-46
2023/10/01 01:19:37;;;;;;;7.20;2.97;;;;;;;;;;5051331;28;20200;-50
2023/10/01 01:22:03;;;;;;;7.83;2.67;;;;;;;;;;5052005;28;20173;-51
2023/10/01 01:24:30;;;;;;;5.93;2.33;;;;;;;;;;5069115;28;20528;-49
2023/10/01 01:27:00;;;;;;;4.67;2.10;;;;;;;;;;5050919;28;20468;-48
2023/10/01 01:29:34;;;;;;;7.10;3.13;;;;;;;;;;5068367;28;20250;-49
2023/10/01 01:32:13;;;;;;;3.60;2.10;;;;;;;;;;5050862;28;20594;-47
2023/10/01 01:34:46;;;;;;;6.23;2.23;;;;;;;;;;5068725;28;20176;-48
2023/10/01 01:37:36;;;;;;;10.10;2.20;;;;;;;;;;5050572;28;20187;-47
2023/10/01 01:40:13;;;;;;;7.40;2.63;;;;;;;;;;5052111;28;20175;-52
2023/10/01 01:42:40;;;;;;;4.70;2.60;;;;;;;;;;5053150;28;20241;-49
2023/10/01 01:45:18;;;;;;;5.03;2.47;;;;;;;;;;5051541;28;20180;-47
2023/10/01 01:47:44;;;;;;;10.50;2.87;;;;;;;;;;5066457;28;20548;-48
2023/10/01 01:50:18;;;;;;;6.50;2.73;;;;;;;;;;5065717;28;20173;-47
2023/10/01 01:52:49;;;;;;;4.87;2.50;;;;;;;;;;5068275;28;20171;-50
2023/10/01 01:55:29;;;;;;;8.67;2.00;;;;;;;;;;5050479;28;20244;-48
2023/10/01 01:58:15;;;;;;;4.80;2.33;;;;;;;;;;5068196;28;20165;-47
2023/10/01 02:01:01;;;;;;;5.97;2.93;;;;;;;;;;5052563;28;20184;-49
2023/10/01 02:03:32;;;;;;;6.33;2.63;;;;;;;;;;5071200;28;20245;-47
2023/10/01 02:05:59;;;;;;;6.00;2.73;;;;;;;;;;5053320;28;20172;-47
2023/10/01 02:08:34;;;;;;;7.30;2.80;;;;;;;;;;5070525;28;20180;-49
2023/10/01 02:11:04;;;;;;;5.53;2.40;;;;;;;;;;5054632;28;20650;-47
2023/10/01 02:13:30;;;;;;;5.40;2.37;;;;;;;;;;5070437;28;20165;-47
2023/10/01 02:15:56;;;;;;;7.27;2.93;;;;;;;;;;5053528;28;20183;-53
2023/10/01 02:18:22;;;;;;;4.60;2.53;;;;;;;;;;5055846;28;20164;-47
2023/10/01 02:20:56;;;;;;;5.50;2.57;;;;;;;;;;5058320;28;20196;-47
2023/10/01 02:23:33;;;;;;;6.90;2.43;;;;;;;;;;5058538;28;20176;-48
2023/10/01 02:26:06;;;;;;;6.30;2.47;;;;;;;;;;5058603;28;20267;-51
2023/10/01 02:28:33;;;;;;;6.83;3.20;;;;;;;;;;5058279;28;20175;-50
2023/10/01 02:31:01;;;;;;;6.00;3.17;;;;;;;;;;5075462;28;20232;-47
2023/10/01 02:36:12;;;;;;;9.07;3.00;;;;;;;;;;5075692;28;20172;-52
2023/10/01 02:38:45;;;;;;;11.20;3.13;;;;;;;;;;5057493;28;20180;-49
2023/10/01 02:41:15;;;;;;;8.53;3.07;;;;;;;;;;5074978;28;20169;-49
2023/10/01 02:43:50;;;;;;;6.53;2.83;;;;;;;;;;5057601;28;20392;-52
2023/10/01 02:46:26;;;;;;;5.80;2.17;;;;;;;;;;5057277;28;20168;-52
2023/10/01 02:48:54;;;;;;;9.53;2.80;;;;;;;;;;5057922;28;20176;-50
2023/10/01 02:51:32;;;;;;;7.03;3.27;;;;;;;;;;5057799;28;20215;-51
2023/10/01 02:54:05;;;;;;;7.07;3.20;;;;;;;;;;5057656;28;20167;-49
2023/10/01 02:56:34;;;;;;;9.63;3.47;;;;;;;;;;5074938;28;20176;-50
2023/10/01 02:59:09;;;;;;;11.27;3.50;;;;;;;;;;5055564;28;20164;-48
2023/10/01 03:01:39;;;;;;;9.03;3.80;;;;;;;;;;5071182;28;20160;-47
2023/10/01 03:04:27;;;;;;;13.80;4.13;;;;;;;;;;5053712;28;20176;-50
2023/10/01 03:06:55;;;;;;;8.07;4.20;;;;;;;;;;5053373;28;20169;-51
2023/10/01 03:09:34;;;;;;;9.87;3.90;;;;;;;;;;5052873;28;20639;-52
2023/10/01 03:15:17;;;;;;;10.67;4.50;;;;;;;;;;5072244;28;20210;-47
2023/10/01 03:18:05;;;;;;;9.47;5.00;;;;;;;;;;5053427;28;20227;-49
2023/10/01 03:23:04;;;;;;;11.93;4.13;;;;;;;;;;5075401;28;20188;-52
2023/10/01 03:25:40;;;;;;;9.20;4.10;;;;;;;;;;5057346;28;20181;-49
2023/10/01 03:28:07;;;;;;;7.23;3.93;;;;;;;;;;5074101;28;20544;-49
2023/10/01 03:30:33;;;;;;;8.77;4.27;;;;;;;;;;5057152;28;20691;-48
2023/10/01 03:33:08;;;;;;;11.67;4.00;;;;;;;;;;5056319;28;20330;-48
2023/10/01 03:35:34;;;;;;;12.73;4.77;;;;;;;;;;5073894;28;20148;-49
2023/10/01 03:41:16;;;;;;;9.97;4.70;;;;;;;;;;5074707;28;20179;-49
2023/10/01 03:43:42;;;;;;;14.10;4.67;;;;;;;;;;5057176;28;20275;-49
2023/10/01 03:51:28;;;;;;;13.13;4.80;;;;;;;;;;5074653;28;20214;-49
2023/10/01 03:53:59;;;;;;;8.73;4.47;;;;;;;;;;5056751;28;20168;-50
2023/10/01 03:56:29;;;;;;;8.57;4.03;;;;;;;;;;5056536;28;20209;-50
2023/10/01 03:59:15;;;;;;;8.93;4.47;;;;;;;;;;5074738;28;20169;-50
2023/10/01 04:01:58;;;;;;;13.03;4.93;;;;;;;;;;5055886;28;20168;-47
2023/10/01 04:04:27;;;;;;;12.50;4.47;;;;;;;;;;5057633;28;20169;-48
2023/10/01 04:06:54;;;;;;;11.13;3.97;;;;;;;;;;5059027;28;20232;-51
2023/10/01 04:09:26;;;;;;;11.97;5.03;;;;;;;;;;5060829;28;20172;-48
2023/10/01 04:14:39;;;;;;;8.57;4.57;;;;;;;;;;5077978;28;20211;-49
2023/10/01 04:17:12;;;;;;;8.70;4.53;;;;;;;;;;5060070;28;20204;-48
2023/10/01 04:19:40;;;;;;;8.33;4.90;;;;;;;;;;5077496;28;20556;-49
2023/10/01 04:22:08;;;;;;;12.13;5.67;;;;;;;;;;5077918;28;20191;-48
2023/10/01 04:24:36;;;;;;;10.17;5.03;;;;;;;;;;5061428;28;20238;-47
2023/10/01 04:27:18;;;;;;;10.20;5.40;;;;;;;;;;5060173;28;20165;-52
2023/10/01 04:29:57;;;;;;;10.93;5.80;;;;;;;;;;5059150;28;20181;-51
2023/10/01 04:32:23;;;;;;;11.57;5.90;;;;;;;;;;5059240;28;20592;-47
2023/10/01 04:34:49;;;;;;;12.57;6.33;;;;;;;;;;5059289;28;20173;-49
2023/10/01 04:37:36;;;;;;;9.63;6.13;;;;;;;;;;5059938;28;20169;-48
2023/10/01 04:40:03;;;;;;;12.53;6.60;;;;;;;;;;5075962;28;20211;-52
2023/10/01 04:42:29;;;;;;;10.97;5.27;;;;;;;;;;5059404;28;20207;-50
2023/10/01 04:44:55;;;;;;;17.73;5.80;;;;;;;;;;5076878;28;20234;-48
2023/10/01 04:47:40;;;;;;;23.20;6.40;;;;;;;;;;5060606;28;20628;-49
2023/10/01 04:50:06;;;;;;;14.80;6.60;;;;;;;;;;5060049;28;20225;-46
2023/10/01 04:52:32;;;;;;;15.33;6.50;;;;;;;;;;5060422;28;20195;-47
2023/10/01 04:54:59;;;;;;;10.77;5.67;;;;;;;;;;5059141;28;20669;-52
2023/10/01 04:57:25;;;;;;;17.87;6.03;;;;;;;;;;5059342;28;20173;-50
2023/10/01 04:59:57;;;;;;;17.50;7.03;;;;;;;;;;5077623;28;20180;-50
2023/10/01 05:02:23;;;;;;;13.27;5.90;;;;;;;;;;5058863;28;20536;-52
2023/10/01 05:04:51;;;;;;;15.07;6.80;;;;;;;;;;5075224;28;20641;-49
2023/10/01 05:07:16;;;;;;;17.40;7.87;;;;;;;;;;5076439;28;20254;-52
2023/10/01 05:09:43;;;;;;;15.67;7.07;;;;;;;;;;5058535;28;20227;-50
2023/10/01 05:12:11;;;;;;;11.63;7.17;;;;;;;;;;5073888;28;20235;-51
2023/10/01 05:14:56;;;;;;;10.60;6.43;;;;;;;;;;5052945;28;20176;-49
2023/10/01 05:17:23;;;;;;;13.03;6.27;;;;;;;;;;5052269;28;20211;-47
2023/10/01 05:19:51;;;;;;;11.23;7.00;;;;;;;;;;5058237;28;20627;-49
2023/10/01 05:22:18;;;;;;;10.33;6.47;;;;;;;;;;5058648;28;20172;-49
2023/10/01 05:24:48;;;;;;;10.83;7.27;;;;;;;;;;5058018;28;20177;-51
2023/10/01 05:27:19;;;;;;;12.53;6.40;;;;;;;;;;5057397;28;20184;-49
2023/10/01 05:29:45;;;;;;;10.93;7.07;;;;;;;;;;5058229;28;20242;-49
2023/10/01 05:32:12;;;;;;;13.43;7.37;;;;;;;;;;5057583;28;20236;-48
2023/10/01 05:34:42;;;;;;;9.17;6.80;;;;;;;;;;5075251;28;20178;-47
2023/10/01 05:37:08;;;;;;;18.40;7.70;;;;;;;;;;5058022;28;20165;-48
2023/10/01 05:39:57;;;;;;;13.07;7.93;;;;;;;;;;5058254;28;20175;-53
2023/10/01 05:42:25;;;;;;;11.30;7.37;;;;;;;;;;5056996;28;20212;-51
2023/10/01 05:44:51;;;;;;;10.00;6.90;;;;;;;;;;5058643;28;20186;-51
2023/10/01 05:47:17;;;;;;;14.93;7.73;;;;;;;;;;5058316;28;20185;-50
2023/10/01 05:49:49;;;;;;;15.33;8.10;;;;;;;;;;5059204;28;20445;-50
2023/10/01 05:52:17;;;;;;;12.23;7.70;;;;;;;;;;5058533;28;20216;-47
2023/10/01 05:54:52;;;;;;;18.57;8.03;;;;;;;;;;5058739;28;20168;-48
2023/10/01 05:57:18;;;;;;;9.13;6.53;;;;;;;;;;5058273;28;20318;-53
2023/10/01 05:59:56;;;;;;;12.47;8.03;;;;;;;;;;5057394;28;20697;-49
2023/10/01 06:02:47;;;;;;;10.53;6.23;;;;;;;;;;5076024;28;20176;-47
2023/10/01 06:05:25;;;;;;;12.93;8.50;;;;;;;;;;5058814;28;20804;-49
2023/10/01 06:07:51;;;;;;;14.13;8.00;;;;;;;;;;5058835;28;20172;-47
2023/10/01 06:10:19;;;;;;;18.23;8.07;;;;;;;;;;5058580;28;20169;-50
2023/10/01 06:12:51;;;;;;;15.10;7.90;;;;;;;;;;5058805;28;20610;-50
2023/10/01 06:15:20;;;;;;;12.23;7.60;;;;;;;;;;5076295;28;20149;-47
2023/10/01 06:17:50;;;;;;;12.33;7.60;;;;;;;;;;5073112;28;20175;-51
2023/10/01 06:20:28;;;;;;;13.77;8.17;;;;;;;;;;5074062;28;20168;-52
2023/10/01 06:22:55;;;;;;;12.43;8.70;;;;;;;;;;5071242;28;20218;-47
2023/10/01 06:25:37;;;;;;;31.40;7.80;;;;;;;;;;5072800;28;20172;-49
2023/10/01 06:28:20;;;;;;;15.17;8.17;;;;;;;;;;5072165;28;20664;-47
2023/10/01 06:30:49;;;;;;;11.23;8.43;;;;;;;;;;5089313;28;20455;-49
2023/10/01 06:33:35;;;;;;;12.03;7.97;;;;;;;;;;5070908;28;20555;-50
2023/10/01 06:36:19;;;;;;;15.33;8.93;;;;;;;;;;5071444;28;20164;-51
2023/10/01 06:38:47;;;;;;;15.00;8.87;;;;;;;;;;5069597;28;20175;-51
2023/10/01 06:41:16;;;;;;;14.33;8.30;;;;;;;;;;5086143;28;20164;-48
2023/10/01 06:43:48;;;;;;;12.17;7.97;;;;;;;;;;5068312;28;20299;-47
2023/10/01 06:46:19;;;;;;;14.73;7.83;;;;;;;;;;5068228;28;20176;-50
2023/10/01 06:48:50;;;;;;;12.90;8.43;;;;;;;;;;5067892;28;20191;-47
2023/10/01 06:51:21;;;;;;;9.50;7.80;;;;;;;;;;5069642;28;20246;-49
2023/10/01 06:53:58;;;;;;;13.83;8.17;;;;;;;;;;5070994;28;20193;-52
2023/10/01 06:56:25;;;;;;;14.03;8.47;;;;;;;;;;5070851;28;20360;-50
2023/10/01 07:01:42;;;;;;;14.43;7.43;;;;;;;;;;5088880;28;20689;-51
2023/10/01 07:04:11;;;;;;;14.50;8.00;;;;;;;;;;5088723;28;20171;-49
2023/10/01 07:06:38;;;;;;;14.23;7.83;;;;;;;;;;5070792;28;20272;-49
2023/10/01 07:09:24;;;;;;;12.83;7.40;;;;;;;;;;5088645;28;20168;-47
2023/10/01 07:11:51;;;;;;;18.43;7.80;;;;;;;;;;5070573;28;20499;-47
2023/10/01 07:14:30;;;;;;;10.93;7.40;;;;;;;;;;5069914;28;20528;-47
2023/10/01 07:17:03;;;;;;;15.47;8.20;;;;;;;;;;5070295;28;20262;-48
2023/10/01 07:19:30;;;;;;;15.13;8.13;;;;;;;;;;5073968;28;20229;-47
2023/10/01 07:21:59;;;;;;;13.33;7.90;;;;;;;;;;5073869;28;20176;-50
2023/10/01 07:24:31;;;;;;;19.50;7.83;;;;;;;;;;5093092;28;20148;-51
2023/10/01 07:27:03;;;;;;;13.57;7.57;;;;;;;;;;5074652;28;20226;-49
2023/10/01 07:29:33;;;;;;;20.77;9.67;;;;;;;;;;5077280;28;20195;-49
2023/10/01 07:32:00;;;;;;;13.03;8.10;;;;;;;;;;5093922;28;20208;-50
2023/10/01 07:34:31;;;;;;;12.00;7.50;;;;;;;;;;5075540;28;20179;-47
2023/10/01 07:36:59;;;;;;;13.53;8.30;;;;;;;;;;5075524;28;20180;-48
2023/10/01 07:39:25;;;;;;;14.47;8.03;;;;;;;;;;5076991;28;20183;-47
2023/10/01 07:41:51;;;;;;;16.67;7.73;;;;;;;;;;5078953;28;20164;-50
2023/10/01 07:44:18;;;;;;;16.67;8.47;;;;;;;;;;5097146;28;20205;-49
2023/10/01 07:46:44;;;;;;;10.83;6.83;;;;;;;;;;5078946;28;20230;-48
2023/10/01 07:49:10;;;;;;;13.87;7.63;;;;;;;;;;5079018;28;20190;-48
2023/10/01 07:51:38;;;;;;;11.40;7.70;;;;;;;;;;5078030;28;20286;-47
2023/10/01 07:54:10;;;;;;;12.17;8.07;;;;;;;;;;5096473;28;20649;-53
2023/10/01 07:56:36;;;;;;;14.30;7.07;;;;;;;;;;5077215;28;20180;-49
2023/10/01 07:59:28;;;;;;;17.57;7.43;;;;;;;;;;5078055;28;20263;-49
2023/10/01 08:07:18;;;;;;;14.17;7.97;;;;;;;;;;5096109;28;20171;-49
2023/10/01 08:09:54;;;;;;;11.90;7.23;;;;;;;;;;5079032;28;20164;-47
2023/10/01 08:13:04;;;;;;;12.30;7.20;;;;;;;;;;5078479;28;20203;-48
2023/10/01 08:18:26;;;;;;;13.13;7.43;;;;;;;;;;5094384;28;20179;-50
2023/10/01 08:20:59;;;;;;;12.10;6.53;;;;;;;;;;5077919;28;20175;-47
2023/10/01 08:23:30;;;;;;;8.87;5.13;;;;;;;;;;5094628;28;20176;-48
2023/10/01 08:25:56;;;;;;;11.83;7.27;;;;;;;;;;5077710;28;20184;-47
2023/10/01 08:30:49;;;;;;;12.63;6.30;;;;;;;;;;5096211;28;20241;-51
2023/10/01 08:35:57;;;;;;;9.87;6.27;;;;;;;;;;5095756;28;20205;-50
2023/10/01 08:38:29;;;;;;;10.13;6.37;;;;;;;;;;5078984;28;20164;-46
2023/10/01 08:41:02;;;;;;;9.57;5.23;;;;;;;;;;5094666;28;20651;-48
2023/10/01 08:43:31;;;;;;;10.63;6.20;;;;;;;;;;5077100;28;20164;-47
2023/10/01 08:46:05;;;;;;;9.27;6.03;;;;;;;;;;5077520;28;20176;-48
2023/10/01 08:48:36;;;;;;;9.07;5.43;;;;;;;;;;5076987;28;20215;-47
2023/10/01 08:51:08;;;;;;;11.17;6.10;;;;;;;;;;5076437;28;20199;-49
2023/10/01 08:53:36;;;;;;;10.10;5.67;;;;;;;;;;5074965;28;20172;-47
2023/10/01 08:56:04;;;;;;;8.50;5.23;;;;;;;;;;5074473;28;20172;-49
2023/10/01 08:58:48;;;;;;;11.47;4.97;;;;;;;;;;5074335;28;20502;-47
2023/10/01 09:01:19;;;;;;;7.53;4.67;;;;;;;;;;5075174;28;20167;-48
2023/10/01 09:03:51;;;;;;;10.07;5.50;;;;;;;;;;5074858;28;20187;-50
2023/10/01 09:06:28;;;;;;;12.17;5.33;;;;;;;;;;5076085;28;20178;-52
2023/10/01 09:08:55;;;;;;;9.70;4.20;;;;;;;;;;5073998;28;20176;-51
2023/10/01 09:11:47;;;;;;;10.47;4.57;;;;;;;;;;5075840;28;20203;-50
2023/10/01 09:14:20;;;;;;;10.13;4.67;;;;;;;;;;5077188;28;20249;-50
2023/10/01 09:16:49;;;;;;;11.07;5.73;;;;;;;;;;5076376;28;20278;-50
2023/10/01 09:19:34;;;;;;;8.60;4.87;;;;;;;;;;5092561;28;20556;-47
2023/10/01 09:22:16;;;;;;;9.00;4.60;;;;;;;;;;5077759;28;20511;-52
2023/10/01 09:24:55;;;;;;;10.67;5.13;;;;;;;;;;5076766;28;20207;-51
2023/10/01 09:27:30;;;;;;;8.60;4.67;;;;;;;;;;5077633;28;20274;-47
2023/10/01 09:30:27;;;;;;;6.97;4.63;;;;;;;;;;5076925;28;20481;-50
2023/10/01 09:33:04;;;;;;;11.30;4.93;;;;;;;;;;5075893;28;20224;-48
2023/10/01 09:35:40;;;;;;;9.30;4.40;;;;;;;;;;5095137;28;20511;-50
2023/10/01 09:38:18;;;;;;;10.47;5.23;;;;;;;;;;5077099;28;20577;-47
2023/10/01 09:40:46;;;;;;;11.57;4.47;;;;;;;;;;5077525;28;20260;-49
2023/10/01 09:43:18;;;;;;;10.57;5.67;;;;;;;;;;5094566;28;20229;-50
2023/10/01 09:45:46;;;;;;;9.67;5.57;;;;;;;;;;5074955;28;20275;-50
2023/10/01 09:48:28;;;;;;;12.93;5.83;;;;;;;;;;5092042;28;20184;-50
2023/10/01 09:50:58;;;;;;;9.17;5.53;;;;;;;;;;5073093;28;20214;-50
2023/10/01 09:53:31;;;;;;;13.07;6.07;;;;;;;;;;5091450;28;20176;-53
2023/10/01 09:55:57;;;;;;;12.10;5.90;;;;;;;;;;5073139;28;20226;-48
2023/10/01 09:58:25;;;;;;;12.43;7.00;;;;;;;;;;5084820;28;20230;-47
2023/10/01 10:01:02;;;;;;;14.07;6.37;;;;;;;;;;5072200;28;20210;-49
2023/10/01 10:03:38;;;;;;;10.83;6.43;;;;;;;;;;5072242;28;20756;-49
2023/10/01 10:06:08;;;;;;;9.63;5.70;;;;;;;;;;5073497;28;20182;-48
2023/10/01 10:08:35;;;;;;;11.63;6.80;;;;;;;;;;5056953;28;20230;-47
2023/10/01 10:11:02;;;;;;;10.10;5.70;;;;;;;;;;5056248;28;20204;-48
2023/10/01 10:13:37;;;;;;;8.23;5.43;;;;;;;;;;5072182;28;20196;-48
2023/10/01 10:19:09;;;;;;;12.00;6.80;;;;;;;;;;5037780;28;20181;-47
2023/10/01 10:24:45;;;;;;;10.07;6.00;;;;;;;;;;5072730;28;20597;-51
2023/10/01 10:27:22;;;;;;;10.67;5.10;;;;;;;;;;5071818;28;20186;-47
2023/10/01 10:29:57;;;;;;;8.60;5.27;;;;;;;;;;5071227;28;20175;-48
2023/10/01 10:32:30;;;;;;;12.60;5.07;;;;;;;;;;5069871;28;20286;-50
2023/10/01 10:35:03;;;;;;;8.50;4.77;;;;;;;;;;5072212;28;20172;-51
2023/10/01 10:37:36;;;;;;;8.33;5.03;;;;;;;;;;5071207;28;20192;-49
2023/10/01 10:40:04;;;;;;;12.63;4.90;;;;;;;;;;5070483;28;20215;-50
2023/10/01 10:42:34;;;;;;;10.60;4.63;;;;;;;;;;5071649;28;20175;-48
2023/10/01 10:45:21;;;;;;;7.73;4.23;;;;;;;;;;5071518;28;20564;-50
2023/10/01 10:48:04;;;;;;;11.73;5.77;;;;;;;;;;5071362;28;20164;-50
2023/10/01 10:50:41;;;;;;;14.13;4.83;;;;;;;;;;5069444;28;20177;-52
2023/10/01 10:53:15;;;;;;;11.87;4.47;;;;;;;;;;5070833;28;20178;-49
2023/10/01 10:56:02;;;;;;;10.70;4.17;;;;;;;;;;5071153;28;20161;-50
2023/10/01 10:58:37;;;;;;;13.60;4.83;;;;;;;;;;5053862;28;20625;-49
2023/10/01 11:01:15;;;;;;;12.37;4.43;;;;;;;;;;5069900;28;20451;-52
2023/10/01 11:03:55;;;;;;;12.13;4.70;;;;;;;;;;5069392;28;20196;-48
2023/10/01 11:06:29;;;;;;;12.47;4.53;;;;;;;;;;5071762;28;20270;-53
2023/10/01 11:08:56;;;;;;;10.33;4.20;;;;;;;;;;5072756;28;20145;-49
2023/10/01 11:11:22;;;;;;;10.83;4.70;;;;;;;;;;5069684;28;20197;-50
2023/10/01 11:14:00;;;;;;;6.73;3.73;;;;;;;;;;5063728;28;20171;-49
2023/10/01 11:16:39;;;;;;;10.30;4.50;;;;;;;;;;5068393;28;20164;-52
2023/10/01 11:19:12;;;;;;;11.37;4.23;;;;;;;;;;5074579;28;20173;-52
2023/10/01 11:22:00;;;;;;;12.90;5.20;;;;;;;;;;5075692;28;20192;-52
2023/10/01 11:24:39;;;;;;;12.57;4.67;;;;;;;;;;5074736;28;20463;-51
2023/10/01 11:27:11;;;;;;;7.27;3.80;;;;;;;;;;5075442;28;20278;-48
2023/10/01 11:29:38;;;;;;;8.80;3.80;;;;;;;;;;5075016;28;20645;-52
2023/10/01 11:32:04;;;;;;;12.43;4.70;;;;;;;;;;5074559;28;20797;-49
2023/10/01 11:34:55;;;;;;;15.47;5.53;;;;;;;;;;5073522;28;20186;-51
2023/10/01 11:37:27;;;;;;;9.53;5.17;;;;;;;;;;5072353;28;20173;-49
2023/10/01 11:39:54;;;;;;;10.70;5.13;;;;;;;;;;5073670;28;20196;-48
2023/10/01 11:42:27;;;;;;;10.40;5.53;;;;;;;;;;5073770;28;20181;-49
2023/10/01 11:44:54;;;;;;;10.67;4.97;;;;;;;;;;5073908;28;20169;-47
2023/10/01 11:47:34;;;;;;;10.30;6.00;;;;;;;;;;5073707;28;20188;-48
2023/10/01 11:50:07;;;;;;;14.47;4.87;;;;;;;;;;5075320;28;20203;-47
2023/10/01 11:52:36;;;;;;;11.83;6.13;;;;;;;;;;5074742;28;20659;-50
2023/10/01 11:55:18;;;;;;;11.53;6.37;;;;;;;;;;5074837;28;20224;-53
2023/10/01 11:57:53;;;;;;;13.07;5.93;;;;;;;;;;5074977;28;20804;-52
2023/10/01 12:00:52;;;;;;;11.63;6.67;;;;;;;;;;5056666;28;20173;-49
2023/10/01 12:03:10;;;;;;;11.70;6.30;;;;;;;;;;5075336;28;20173;-47
2023/10/01 12:05:42;;;;;;;16.60;6.13;;;;;;;;;;5073839;28;20169;-48
2023/10/01 12:08:18;;;;;;;14.00;6.57;;;;;;;;;;5073840;28;20172;-49
2023/10/01 12:10:45;;;;;;;12.00;5.67;;;;;;;;;;5072387;28;20176;-51
2023/10/01 12:13:13;;;;;;;13.47;6.50;;;;;;;;;;5073837;28;20757;-47
2023/10/01 12:15:52;;;;;;;16.43;7.13;;;;;;;;;;5073669;28;20513;-49
2023/10/01 12:18:18;;;;;;;14.93;7.87;;;;;;;;;;5072224;28;20168;-48
2023/10/01 12:20:50;;;;;;;14.77;7.50;;;;;;;;;;5071178;28;20235;-47
2023/10/01 12:23:22;;;;;;;13.67;6.67;;;;;;;;;;5072807;28;20161;-47
2023/10/01 12:26:31;;;;;;;13.67;7.63;;;;;;;;;;5074215;28;20173;-48
2023/10/01 12:29:11;;;;;;;15.07;7.00;;;;;;;;;;5094181;28;20180;-51
2023/10/01 12:31:31;;;;;;;13.40;7.17;;;;;;;;;;5091687;28;20200;-52
2023/10/01 12:33:59;;;;;;;12.87;7.20;;;;;;;;;;5092615;28;20306;-54
2023/10/01 12:36:32;;;;;;;14.27;7.17;;;;;;;;;;5078229;28;20164;-49
2023/10/01 12:41:56;;;;;;;20.03;8.37;;;;;;;;;;5094139;28;20245;-51
2023/10/01 12:44:25;;;;;;;12.03;5.97;;;;;;;;;;5093364;28;20178;-53
2023/10/01 12:46:52;;;;;;;9.97;5.17;;;;;;;;;;5076955;28;20176;-54
2023/10/01 12:49:18;;;;;;;9.97;5.43;;;;;;;;;;5077399;28;20176;-48
2023/10/01 12:51:53;;;;;;;11.77;5.03;;;;;;;;;;5077543;28;20450;-49
2023/10/01 12:54:25;;;;;;;8.13;5.23;;;;;;;;;;5075276;28;20187;-47
2023/10/01 12:57:09;;;;;;;10.17;5.80;;;;;;;;;;5076329;28;20233;-50
2023/10/01 12:59:44;;;;;;;6.67;4.37;;;;;;;;;;5076897;28;20202;-52
2023/10/01 13:07:45;;;;;;;9.47;5.20;;;;;;;;;;5091794;28;20230;-49
2023/10/01 13:10:13;;;;;;;10.17;5.40;;;;;;;;;;5075020;28;20219;-57
2023/10/01 13:12:39;;;;;;;9.30;5.63;;;;;;;;;;5075783;28;20231;-50
2023/10/01 13:15:16;;;;;;;8.90;5.37;;;;;;;;;;5074340;28;20171;-54
2023/10/01 13:17:48;;;;;;;7.40;5.03;;;;;;;;;;5074831;28;20184;-50
2023/10/01 13:20:19;;;;;;;8.33;6.10;;;;;;;;;;5075281;28;20215;-48
2023/10/01 13:22:59;;;;;;;11.20;6.33;;;;;;;;;;5093130;28;20203;-51
2023/10/01 13:25:28;;;;;;;9.80;5.93;;;;;;;;;;5075063;28;20180;-53
2023/10/01 13:28:07;;;;;;;9.67;6.33;;;;;;;;;;5076965;28;20174;-50
2023/10/01 13:33:20;;;;;;;16.10;6.50;;;;;;;;;;5093060;28;20285;-51
2023/10/01 13:36:09;;;;;;;8.60;6.13;;;;;;;;;;5093388;28;20176;-52
2023/10/01 14:08:50;;;;;;;11.40;8.03;;;;;;;;;;5090797;28;20260;-46
2023/10/01 14:11:26;;;;;;;10.13;7.13;;;;;;;;;;5073117;28;20477;-50
2023/10/01 14:13:54;;;;;;;12.03;7.97;;;;;;;;;;5075289;28;20179;-48
2023/10/01 14:16:22;;;;;;;11.83;7.47;;;;;;;;;;5074534;28;20172;-49
2023/10/01 14:18:57;;;;;;;9.63;7.80;;;;;;;;;;5075722;28;20250;-48
2023/10/01 14:21:24;;;;;;;13.67;7.77;;;;;;;;;;5094567;28;20167;-49
2023/10/01 14:23:51;;;;;;;13.27;7.90;;;;;;;;;;5077910;28;20221;-51
2023/10/01 14:26:33;;;;;;;12.13;7.00;;;;;;;;;;5076461;28;20278;-48
2023/10/01 14:29:05;;;;;;;14.40;7.37;;;;;;;;;;5093946;28;20226;-52
2023/10/01 14:31:41;;;;;;;12.63;7.20;;;;;;;;;;5075008;28;20248;-51
2023/10/01 14:34:08;;;;;;;10.20;7.27;;;;;;;;;;5091883;28;20314;-53
2023/10/01 14:36:41;;;;;;;12.53;7.80;;;;;;;;;;5073993;28;20571;-49
2023/10/01 14:39:12;;;;;;;15.50;9.13;;;;;;;;;;5074439;28;20216;-51
2023/10/01 14:41:41;;;;;;;10.80;7.60;;;;;;;;;;5074755;28;20207;-49
2023/10/01 14:44:08;;;;;;;11.33;7.70;;;;;;;;;;5092793;28;20172;-47
2023/10/01 14:46:37;;;;;;;11.40;7.27;;;;;;;;;;5076292;28;20566;-50
2023/10/01 14:49:07;;;;;;;10.87;6.53;;;;;;;;;;5075354;28;20187;-48
2023/10/01 14:51:33;;;;;;;14.60;8.50;;;;;;;;;;5075159;28;20215;-49
2023/10/01 14:54:03;;;;;;;12.73;7.33;;;;;;;;;;5093873;28;20646;-50
2023/10/01 14:56:34;;;;;;;14.03;7.83;;;;;;;;;;5074728;28;20662;-50
2023/10/01 14:59:00;;;;;;;12.67;8.87;;;;;;;;;;5074668;28;20182;-48
2023/10/01 15:01:36;;;;;;;20.10;8.27;;;;;;;;;;5075034;28;20791;-53
2023/10/01 15:04:17;;;;;;;13.10;7.27;;;;;;;;;;5075895;28;20266;-49
2023/10/01 15:06:44;;;;;;;11.10;6.80;;;;;;;;;;5074611;28;20178;-48
2023/10/01 15:09:12;;;;;;;16.97;8.00;;;;;;;;;;5092525;28;20203;-49
2023/10/01 15:11:38;;;;;;;15.03;7.87;;;;;;;;;;5074924;28;20203;-52
2023/10/01 15:14:11;;;;;;;13.73;8.50;;;;;;;;;;5074075;28;20551;-50
2023/10/01 15:16:37;;;;;;;16.77;8.33;;;;;;;;;;5074631;28;20563;-49
2023/10/01 15:19:05;;;;;;;13.23;7.33;;;;;;;;;;5075179;28;20161;-48
2023/10/01 15:21:31;;;;;;;14.23;8.57;;;;;;;;;;5075047;28;20168;-50
2023/10/01 15:24:01;;;;;;;15.93;8.60;;;;;;;;;;5076406;28;20176;-51
2023/10/01 15:26:30;;;;;;;15.53;8.93;;;;;;;;;;5092433;28;20229;-48
2023/10/01 15:28:57;;;;;;;13.47;8.43;;;;;;;;;;5093251;28;20152;-47
2023/10/01 15:31:33;;;;;;;14.97;8.77;;;;;;;;;;5091926;28;20227;-48
2023/10/01 15:34:03;;;;;;;12.67;7.63;;;;;;;;;;5070571;28;20226;-50
2023/10/01 15:36:41;;;;;;;13.90;8.17;;;;;;;;;;5070538;28;20183;-50
2023/10/01 15:39:14;;;;;;;11.97;7.60;;;;;;;;;;5071671;28;20634;-51
2023/10/01 15:41:41;;;;;;;13.20;7.47;;;;;;;;;;5071579;28;20486;-49
2023/10/01 15:44:09;;;;;;;15.60;8.90;;;;;;;;;;5072622;28;20177;-49
2023/10/01 15:46:40;;;;;;;14.77;7.50;;;;;;;;;;5070270;28;20177;-49
2023/10/01 15:49:18;;;;;;;17.17;9.43;;;;;;;;;;5072145;28;20181;-49
2023/10/01 15:51:44;;;;;;;20.80;9.40;;;;;;;;;;5071741;28;20663;-52
2023/10/01 15:54:22;;;;;;;15.87;9.13;;;;;;;;;;5071031;28;20169;-48
2023/10/01 15:56:57;;;;;;;16.43;8.70;;;;;;;;;;5071100;28;20635;-54
2023/10/01 15:59:24;;;;;;;15.60;8.53;;;;;;;;;;5070793;28;20197;-51
2023/10/01 16:01:54;;;;;;;14.17;7.47;;;;;;;;;;5070341;28;20180;-52
2023/10/01 16:04:24;;;;;;;14.57;7.83;;;;;;;;;;5071694;28;20192;-47
2023/10/01 16:07:03;;;;;;;16.73;9.43;;;;;;;;;;5056131;28;20180;-50
2023/10/01 16:09:43;;;;;;;18.23;8.93;;;;;;;;;;5072811;28;20245;-48
2023/10/01 16:12:14;;;;;;;11.87;6.70;;;;;;;;;;5072339;28;20303;-51
2023/10/01 16:14:41;;;;;;;13.90;8.23;;;;;;;;;;5074300;28;20176;-52
2023/10/01 16:17:18;;;;;;;13.27;8.73;;;;;;;;;;5073190;28;20594;-47
2023/10/01 16:19:55;;;;;;;13.10;7.93;;;;;;;;;;5072388;28;20177;-47
2023/10/01 16:22:27;;;;;;;15.77;8.97;;;;;;;;;;5072184;28;20200;-50
2023/10/01 16:24:57;;;;;;;15.07;8.53;;;;;;;;;;5073089;28;20474;-49